Time;durP1;ratioP1;P1;durP2;ratioP2;P2;SDS_P1;SDS_P2;PMS_P1;PMS_P2;Temp;Humidity;BMP_temperature;BMP_pressure;BME280_temperature;BME280_humidity;BME280_pressure;Samples;Min_cycle;Max_cycle;Signal;HPM_P1;HPM_P2
2023/12/23 00:02:22;;;;;;;9.65;1.40;;;6.50;99.90;;;;;;4997491;28;20049;-35
2023/12/23 00:04:48;;;;;;;9.55;1.17;;;6.50;99.90;;;;;;5005617;28;20112;-35
2023/12/23 00:07:14;;;;;;;8.95;0.95;;;6.50;99.90;;;;;;5001246;28;20053;-35
2023/12/23 00:09:43;;;;;;;6.95;1.00;;;6.50;99.90;;;;;;5001977;28;20469;-35
2023/12/23 00:12:08;;;;;;;9.02;1.10;;;6.50;99.90;;;;;;5003001;28;20058;-34
2023/12/23 00:14:35;;;;;;;8.45;1.38;;;6.50;99.90;;;;;;5005026;28;20057;-34
2023/12/23 00:17:01;;;;;;;6.53;0.82;;;6.50;99.90;;;;;;5005027;28;20054;-35
2023/12/23 00:19:26;;;;;;;9.07;0.95;;;6.50;99.90;;;;;;4998383;28;20057;-35
2023/12/23 00:21:52;;;;;;;8.90;0.80;;;6.50;99.90;;;;;;5004103;28;20042;-35
2023/12/23 00:24:18;;;;;;;7.90;0.93;;;6.50;99.90;;;;;;5003522;28;20049;-35
2023/12/23 00:26:44;;;;;;;7.90;0.90;;;6.50;99.90;;;;;;5004383;28;20084;-35
2023/12/23 00:29:09;;;;;;;8.98;1.02;;;6.50;99.90;;;;;;5003892;28;20053;-35
2023/12/23 00:31:35;;;;;;;8.40;0.85;;;6.50;99.90;;;;;;5003221;28;20050;-35
2023/12/23 00:34:00;;;;;;;7.97;1.02;;;6.50;99.90;;;;;;5002645;28;20409;-35
2023/12/23 00:36:26;;;;;;;6.63;1.15;;;6.50;99.90;;;;;;5001750;28;20061;-35
2023/12/23 00:38:52;;;;;;;8.40;0.90;;;6.50;99.90;;;;;;5003346;28;20053;-35
2023/12/23 00:41:18;;;;;;;6.72;1.00;;;6.50;99.90;;;;;;5005499;28;20053;-35
2023/12/23 00:43:43;;;;;;;5.22;0.70;;;6.50;99.90;;;;;;4985572;28;20069;-34
2023/12/23 00:46:09;;;;;;;3.22;0.57;;;6.60;99.90;;;;;;5002035;28;21447;-35
2023/12/23 00:48:35;;;;;;;9.00;1.17;;;6.60;99.90;;;;;;5002781;28;20068;-34
2023/12/23 00:51:00;;;;;;;10.65;0.80;;;6.60;99.90;;;;;;5002986;28;20054;-35
2023/12/23 00:53:26;;;;;;;10.13;1.00;;;6.60;99.90;;;;;;5003367;28;20308;-35
2023/12/23 00:55:55;;;;;;;10.20;0.82;;;6.60;99.90;;;;;;5000572;28;20081;-35
2023/12/23 00:58:21;;;;;;;10.32;1.15;;;6.60;99.90;;;;;;5005290;28;20061;-35
2023/12/23 01:00:46;;;;;;;7.15;0.70;;;6.60;99.90;;;;;;5003728;28;20054;-35
2023/12/23 01:03:12;;;;;;;6.55;1.00;;;6.60;99.90;;;;;;4999713;28;20044;-35
2023/12/23 01:05:38;;;;;;;9.32;1.00;;;6.60;99.90;;;;;;5002085;28;20125;-34
2023/12/23 01:08:04;;;;;;;7.57;0.80;;;6.60;99.90;;;;;;5004016;28;20509;-33
2023/12/23 01:10:30;;;;;;;7.18;0.90;;;6.60;99.90;;;;;;4989645;28;20128;-35
2023/12/23 01:12:55;;;;;;;10.40;0.73;;;6.60;99.90;;;;;;5006118;28;20468;-34
2023/12/23 01:15:21;;;;;;;6.32;0.88;;;6.60;99.90;;;;;;5005946;28;20054;-34
2023/12/23 01:17:47;;;;;;;8.05;0.75;;;6.60;99.90;;;;;;5005607;28;29765;-34
2023/12/23 01:20:12;;;;;;;5.95;0.68;;;6.60;99.90;;;;;;4985356;28;20053;-34
2023/12/23 01:22:38;;;;;;;6.53;0.80;;;6.60;99.90;;;;;;5003642;28;20073;-35
2023/12/23 01:25:04;;;;;;;9.05;1.05;;;6.60;99.90;;;;;;5004347;28;20057;-34
2023/12/23 01:27:30;;;;;;;7.80;1.00;;;6.60;99.90;;;;;;5001892;28;20109;-34
2023/12/23 01:29:55;;;;;;;9.70;1.30;;;6.50;99.90;;;;;;5001561;28;20060;-34
2023/12/23 01:32:21;;;;;;;5.50;0.85;;;6.50;99.90;;;;;;5001411;28;20062;-34
2023/12/23 01:34:47;;;;;;;6.05;0.60;;;6.50;99.90;;;;;;5002620;28;20042;-34
2023/12/23 01:37:13;;;;;;;12.57;1.00;;;6.50;99.90;;;;;;5002273;28;20145;-36
2023/12/23 01:39:39;;;;;;;6.32;0.88;;;6.50;99.90;;;;;;5001736;28;20050;-35
2023/12/23 01:42:05;;;;;;;4.57;0.80;;;6.60;99.90;;;;;;5003664;28;20685;-35
2023/12/23 01:44:31;;;;;;;5.65;0.73;;;6.60;99.90;;;;;;5002608;28;20050;-35
2023/12/23 01:46:59;;;;;;;8.70;1.42;;;6.60;99.90;;;;;;5004138;28;20095;-39
2023/12/23 01:49:25;;;;;;;8.30;1.20;;;6.50;99.90;;;;;;5000856;28;20061;-35
2023/12/23 01:51:52;;;;;;;4.57;0.88;;;6.50;99.90;;;;;;5003490;28;20062;-35
2023/12/23 01:54:19;;;;;;;8.48;0.90;;;6.50;99.90;;;;;;5004048;28;20045;-35
2023/12/23 01:56:46;;;;;;;6.90;0.65;;;6.50;99.90;;;;;;5000187;28;20112;-35
2023/12/23 01:59:12;;;;;;;8.68;1.00;;;6.50;99.90;;;;;;5001041;28;20054;-34
2023/12/23 02:01:40;;;;;;;6.35;1.05;;;6.50;99.90;;;;;;5000450;28;20053;-35
2023/12/23 02:04:05;;;;;;;5.50;1.00;;;6.50;99.90;;;;;;5002253;28;20497;-35
2023/12/23 02:06:31;;;;;;;6.55;0.60;;;6.40;99.90;;;;;;5003988;28;20053;-34
2023/12/23 02:08:57;;;;;;;3.70;0.65;;;6.40;99.90;;;;;;5003387;28;20054;-34
2023/12/23 02:11:45;;;;;;;7.07;0.65;;;6.40;99.90;;;;;;5004150;28;20092;-35
2023/12/23 02:14:36;;;;;;;6.85;0.60;;;6.30;99.90;;;;;;5001060;28;20053;-34
2023/12/23 02:17:02;;;;;;;8.68;1.08;;;6.30;99.90;;;;;;4998755;28;20050;-34
2023/12/23 02:19:27;;;;;;;6.25;0.80;;;6.30;99.90;;;;;;5001123;28;20058;-34
2023/12/23 02:21:53;;;;;;;9.18;1.00;;;6.20;99.90;;;;;;5004447;28;20052;-34
2023/12/23 02:24:19;;;;;;;5.55;0.68;;;6.20;99.90;;;;;;5003943;28;20082;-35
2023/12/23 02:26:51;;;;;;;10.30;1.17;;;6.20;99.90;;;;;;5000438;28;20056;-35
2023/12/23 02:29:20;;;;;;;10.35;0.93;;;6.10;99.90;;;;;;5002460;28;20100;-35
2023/12/23 02:31:47;;;;;;;7.95;0.90;;;6.10;99.90;;;;;;4985102;28;20054;-34
2023/12/23 02:34:14;;;;;;;10.07;0.68;;;6.10;99.90;;;;;;5005479;28;20081;-34
2023/12/23 02:36:40;;;;;;;10.50;0.68;;;6.10;99.90;;;;;;5000953;28;20060;-34
2023/12/23 02:39:05;;;;;;;9.15;0.70;;;6.00;99.90;;;;;;5000544;28;20050;-33
2023/12/23 02:41:31;;;;;;;7.50;0.98;;;6.00;99.90;;;;;;4999524;28;20140;-34
2023/12/23 02:43:57;;;;;;;8.55;0.60;;;6.00;99.90;;;;;;4997303;28;20149;-34
2023/12/23 02:46:22;;;;;;;6.07;0.55;;;6.00;99.90;;;;;;5001534;28;20125;-35
2023/12/23 02:48:48;;;;;;;7.32;0.50;;;6.00;99.90;;;;;;5001691;28;20508;-34
2023/12/23 02:51:14;;;;;;;6.93;0.50;;;6.00;99.90;;;;;;5002079;28;20202;-36
2023/12/23 02:53:39;;;;;;;7.70;0.70;;;6.00;99.90;;;;;;5002624;28;20108;-34
2023/12/23 02:56:05;;;;;;;9.40;0.50;;;5.90;99.90;;;;;;5003459;28;20129;-34
2023/12/23 02:58:31;;;;;;;8.38;0.90;;;6.00;99.90;;;;;;4998293;28;20046;-34
2023/12/23 03:00:56;;;;;;;5.60;0.50;;;5.90;99.90;;;;;;5002987;28;20424;-34
2023/12/23 03:03:22;;;;;;;3.20;0.60;;;5.90;99.90;;;;;;5003280;28;20050;-34
2023/12/23 03:05:48;;;;;;;3.58;0.60;;;5.90;99.90;;;;;;4998511;28;20038;-34
2023/12/23 03:08:13;;;;;;;4.00;0.50;;;5.90;99.90;;;;;;4997958;28;20054;-34
2023/12/23 03:10:39;;;;;;;3.03;0.52;;;5.90;99.90;;;;;;5006846;28;20054;-35
2023/12/23 03:13:06;;;;;;;5.20;0.50;;;5.90;99.90;;;;;;5004455;28;20050;-34
2023/12/23 03:15:31;;;;;;;5.80;0.55;;;5.90;99.90;;;;;;4999411;28;20064;-35
2023/12/23 03:17:57;;;;;;;4.15;0.43;;;5.90;99.90;;;;;;5003591;28;20421;-34
2023/12/23 03:20:23;;;;;;;6.88;0.68;;;5.90;99.90;;;;;;5001838;28;20528;-35
2023/12/23 03:22:48;;;;;;;4.97;0.55;;;5.90;99.90;;;;;;5003951;28;20054;-34
2023/12/23 03:25:14;;;;;;;5.97;0.60;;;5.90;99.90;;;;;;5003875;28;20072;-34
2023/12/23 03:27:40;;;;;;;4.05;0.52;;;5.90;99.90;;;;;;5001838;28;20084;-34
2023/12/23 03:30:06;;;;;;;4.45;0.40;;;5.90;99.90;;;;;;5001916;28;20057;-34
2023/12/23 03:32:32;;;;;;;5.60;0.75;;;5.90;99.90;;;;;;5003011;28;20339;-34
2023/12/23 03:34:57;;;;;;;11.65;1.05;;;5.90;99.90;;;;;;5002081;28;20045;-34
2023/12/23 03:37:23;;;;;;;4.65;0.57;;;5.90;99.90;;;;;;5003489;28;20049;-35
2023/12/23 03:39:48;;;;;;;4.15;0.32;;;5.90;99.90;;;;;;5007459;28;20409;-34
2023/12/23 03:42:14;;;;;;;4.60;0.65;;;5.90;99.90;;;;;;5005860;28;20057;-35
2023/12/23 03:44:40;;;;;;;6.25;0.40;;;5.90;99.90;;;;;;5003632;28;20078;-34
2023/12/23 03:47:06;;;;;;;6.22;0.60;;;5.90;99.90;;;;;;5005339;28;20416;-35
2023/12/23 03:49:31;;;;;;;4.03;0.30;;;6.00;99.90;;;;;;5003409;28;20053;-35
2023/12/23 03:51:57;;;;;;;10.82;0.75;;;6.00;99.90;;;;;;5002230;28;20099;-34
2023/12/23 03:54:23;;;;;;;4.95;0.70;;;5.90;99.90;;;;;;5003949;28;20050;-35
2023/12/23 03:56:49;;;;;;;3.78;0.40;;;5.90;99.90;;;;;;5003010;28;20057;-34
2023/12/23 03:59:15;;;;;;;4.38;0.40;;;6.00;99.90;;;;;;5006104;28;20464;-35
2023/12/23 04:01:43;;;;;;;3.83;0.40;;;6.00;99.90;;;;;;5003939;28;20564;-35
2023/12/23 04:04:08;;;;;;;2.88;0.50;;;6.00;99.90;;;;;;4999192;28;20188;-34
2023/12/23 04:06:34;;;;;;;4.70;0.73;;;6.00;99.90;;;;;;5009059;28;20158;-34
2023/12/23 04:09:00;;;;;;;4.03;0.70;;;6.00;99.90;;;;;;5002752;28;20329;-34
2023/12/23 04:11:25;;;;;;;2.30;0.55;;;6.00;99.90;;;;;;5006999;28;20050;-35
2023/12/23 04:13:51;;;;;;;2.33;0.45;;;5.90;99.90;;;;;;5004137;28;20050;-35
2023/12/23 04:16:17;;;;;;;2.78;0.68;;;6.00;99.90;;;;;;5006422;28;20053;-34
2023/12/23 04:18:42;;;;;;;2.63;0.60;;;6.00;99.90;;;;;;5007970;28;20049;-35
2023/12/23 04:21:09;;;;;;;1.90;0.60;;;5.90;99.90;;;;;;5006422;28;20049;-35
2023/12/23 04:23:35;;;;;;;4.45;0.70;;;6.00;99.90;;;;;;5006578;28;20053;-34
2023/12/23 04:26:01;;;;;;;2.42;0.70;;;6.00;99.90;;;;;;5008386;28;20386;-35
2023/12/23 04:28:27;;;;;;;5.13;0.85;;;6.00;99.90;;;;;;5003969;28;20053;-34
2023/12/23 04:30:55;;;;;;;3.83;1.10;;;6.10;99.90;;;;;;5006735;28;21475;-34
2023/12/23 04:33:21;;;;;;;5.28;1.58;;;6.10;99.90;;;;;;5004346;28;20054;-34
2023/12/23 04:35:47;;;;;;;7.30;1.98;;;6.30;99.90;;;;;;5003468;28;20185;-34
2023/12/23 04:38:14;;;;;;;3.50;1.13;;;6.60;99.90;;;;;;5008132;28;20089;-34
2023/12/23 04:40:40;;;;;;;5.85;1.15;;;7.00;99.90;;;;;;5008200;28;20058;-34
2023/12/23 04:43:06;;;;;;;8.57;1.60;;;7.40;99.90;;;;;;5006113;28;20050;-34
2023/12/23 04:45:31;;;;;;;7.55;1.30;;;7.60;99.90;;;;;;5002034;28;20457;-34
2023/12/23 04:47:57;;;;;;;7.93;1.30;;;7.80;99.90;;;;;;5007519;28;20462;-34
2023/12/23 04:50:23;;;;;;;9.05;1.25;;;7.90;99.90;;;;;;5005060;28;20050;-34
2023/12/23 04:52:48;;;;;;;7.32;1.38;;;8.00;99.90;;;;;;5001025;28;20058;-34
2023/12/23 04:55:14;;;;;;;6.95;1.40;;;8.10;99.90;;;;;;5003439;28;20081;-36
2023/12/23 04:57:40;;;;;;;7.07;1.65;;;8.10;99.90;;;;;;5004030;28;20412;-34
2023/12/23 05:00:06;;;;;;;6.68;1.48;;;8.20;99.90;;;;;;5005959;28;20061;-35
2023/12/23 05:02:33;;;;;;;12.70;1.90;;;8.20;99.90;;;;;;5001624;28;20072;-36
2023/12/23 05:04:59;;;;;;;11.80;2.17;;;8.10;99.90;;;;;;5004506;28;20042;-35
2023/12/23 05:07:25;;;;;;;13.70;4.10;;;8.10;99.90;;;;;;5006161;28;20053;-35
2023/12/23 05:09:50;;;;;;;11.25;2.38;;;8.20;99.90;;;;;;4988867;28;20060;-35
2023/12/23 05:12:16;;;;;;;7.28;1.50;;;8.20;99.90;;;;;;5002403;28;20058;-35
2023/12/23 05:14:42;;;;;;;6.85;1.65;;;8.20;99.90;;;;;;5004540;28;20057;-35
2023/12/23 05:17:07;;;;;;;6.10;1.30;;;8.20;99.90;;;;;;5005201;28;20069;-35
2023/12/23 05:19:34;;;;;;;13.05;1.65;;;8.20;99.90;;;;;;5007690;28;20489;-35
2023/12/23 05:21:59;;;;;;;9.88;1.60;;;8.20;99.90;;;;;;5006895;28;20066;-35
2023/12/23 05:24:25;;;;;;;11.30;1.65;;;8.20;99.90;;;;;;5004686;28;20054;-35
2023/12/23 05:26:51;;;;;;;9.18;2.15;;;8.20;99.90;;;;;;5003371;28;20133;-35
2023/12/23 05:29:16;;;;;;;13.60;2.35;;;8.20;99.90;;;;;;5007386;28;20524;-35
2023/12/23 05:31:42;;;;;;;11.23;1.63;;;8.20;99.90;;;;;;5004670;28;20412;-35
2023/12/23 05:34:08;;;;;;;8.93;1.60;;;8.20;99.90;;;;;;5005322;28;20053;-35
2023/12/23 05:36:34;;;;;;;9.55;1.33;;;8.20;99.90;;;;;;5002913;28;20715;-36
2023/12/23 05:38:59;;;;;;;13.25;1.98;;;8.20;99.90;;;;;;5001879;28;20141;-35
2023/12/23 05:41:25;;;;;;;13.60;2.28;;;8.20;99.90;;;;;;4999894;28;20482;-35
2023/12/23 05:43:51;;;;;;;8.15;1.70;;;8.20;99.90;;;;;;5005186;28;20050;-35
2023/12/23 05:46:16;;;;;;;9.57;1.80;;;8.20;99.90;;;;;;5004988;28;20116;-35
2023/12/23 05:48:42;;;;;;;7.65;1.70;;;8.30;99.90;;;;;;5006120;28;20047;-35
2023/12/23 05:51:11;;;;;;;9.10;1.20;;;8.20;99.90;;;;;;4982407;28;20065;-35
2023/12/23 05:53:37;;;;;;;11.63;2.42;;;8.20;99.90;;;;;;5003204;28;20489;-35
2023/12/23 05:56:04;;;;;;;12.43;1.58;;;8.30;99.90;;;;;;5007252;28;20072;-35
2023/12/23 05:58:30;;;;;;;14.07;1.73;;;8.30;99.90;;;;;;5004542;28;20049;-35
2023/12/23 06:00:56;;;;;;;15.98;2.33;;;8.30;99.90;;;;;;5002414;28;20045;-35
2023/12/23 06:03:22;;;;;;;20.45;2.63;;;8.30;99.90;;;;;;5001512;28;20437;-35
2023/12/23 06:05:47;;;;;;;12.27;2.20;;;8.30;99.90;;;;;;5003477;28;20520;-35
2023/12/23 06:08:13;;;;;;;18.23;3.38;;;8.30;99.90;;;;;;5005453;28;20053;-35
2023/12/23 06:10:39;;;;;;;14.15;2.88;;;8.30;99.90;;;;;;5002757;28;20049;-35
2023/12/23 06:13:04;;;;;;;13.73;2.97;;;8.40;99.90;;;;;;5000338;28;20078;-35
2023/12/23 06:15:30;;;;;;;11.82;2.17;;;8.40;99.90;;;;;;4988715;28;20092;-36
2023/12/23 06:17:56;;;;;;;12.70;2.38;;;8.40;99.90;;;;;;5006518;28;20046;-35
2023/12/23 06:20:21;;;;;;;10.60;2.47;;;8.40;99.90;;;;;;4998504;28;20455;-35
2023/12/23 06:22:47;;;;;;;13.82;2.15;;;8.40;99.90;;;;;;5004184;28;20406;-35
2023/12/23 06:25:13;;;;;;;17.50;2.55;;;8.40;99.90;;;;;;5006237;28;20107;-35
2023/12/23 06:27:39;;;;;;;14.48;2.10;;;8.40;99.90;;;;;;5000778;28;20447;-35
2023/12/23 06:30:05;;;;;;;14.57;3.15;;;8.50;99.90;;;;;;5004517;28;20058;-35
2023/12/23 06:32:31;;;;;;;13.20;2.58;;;8.50;99.90;;;;;;5000437;28;20107;-35
2023/12/23 06:34:56;;;;;;;14.27;1.85;;;8.50;99.90;;;;;;5004821;28;20058;-35
2023/12/23 06:37:22;;;;;;;13.73;2.30;;;8.60;99.90;;;;;;4984269;28;20107;-35
2023/12/23 06:39:48;;;;;;;7.65;2.00;;;8.60;99.90;;;;;;5004226;28;20065;-35
2023/12/23 06:42:13;;;;;;;22.23;2.35;;;8.60;99.90;;;;;;5000087;28;20053;-35
2023/12/23 06:44:39;;;;;;;8.52;1.42;;;8.60;99.90;;;;;;5004316;28;20053;-35
2023/12/23 06:47:05;;;;;;;11.98;2.05;;;8.60;99.90;;;;;;5001112;28;20088;-35
2023/12/23 06:49:31;;;;;;;10.35;2.20;;;8.60;99.90;;;;;;5007025;28;20103;-35
2023/12/23 06:51:57;;;;;;;16.02;2.47;;;8.60;99.90;;;;;;4987906;28;20038;-35
2023/12/23 06:54:22;;;;;;;12.80;2.45;;;8.60;99.90;;;;;;5002480;28;20485;-35
2023/12/23 06:56:48;;;;;;;13.07;2.08;;;8.60;99.90;;;;;;5002592;28;20049;-35
2023/12/23 06:59:14;;;;;;;8.75;2.20;;;8.60;99.90;;;;;;5003556;28;20175;-35
2023/12/23 07:01:39;;;;;;;14.07;1.83;;;8.60;99.90;;;;;;5003289;28;20069;-35
2023/12/23 07:04:08;;;;;;;12.13;1.77;;;8.60;99.90;;;;;;5005133;28;20076;-35
2023/12/23 07:06:35;;;;;;;12.10;2.22;;;8.60;99.90;;;;;;5003418;28;20062;-35
2023/12/23 07:09:01;;;;;;;11.38;2.17;;;8.60;99.90;;;;;;5006283;28;20077;-35
2023/12/23 07:11:27;;;;;;;9.30;1.98;;;8.60;99.90;;;;;;4984742;28;20615;-35
2023/12/23 07:13:53;;;;;;;13.05;2.10;;;8.70;99.90;;;;;;5005846;28;20502;-35
2023/12/23 07:16:19;;;;;;;10.13;1.75;;;8.70;99.90;;;;;;4997118;28;20092;-34
2023/12/23 07:18:45;;;;;;;11.90;1.80;;;8.70;99.90;;;;;;5003235;28;20133;-34
2023/12/23 07:21:11;;;;;;;12.95;1.98;;;8.70;99.90;;;;;;5004233;28;20057;-35
2023/12/23 07:23:37;;;;;;;12.77;2.05;;;8.60;99.90;;;;;;4999081;28;20066;-35
2023/12/23 07:26:03;;;;;;;11.82;2.05;;;8.60;99.90;;;;;;5001736;28;20046;-37
2023/12/23 07:28:29;;;;;;;12.50;2.47;;;8.60;99.90;;;;;;5001919;28;20134;-35
2023/12/23 07:30:55;;;;;;;8.48;1.98;;;8.60;99.90;;;;;;5004847;28;20049;-35
2023/12/23 07:33:22;;;;;;;17.45;2.17;;;8.70;99.90;;;;;;5004709;28;20037;-35
2023/12/23 07:35:48;;;;;;;12.77;1.65;;;8.60;99.90;;;;;;5003576;28;20644;-36
2023/12/23 07:38:14;;;;;;;15.65;2.28;;;8.70;99.90;;;;;;5003051;28;20057;-35
2023/12/23 07:40:40;;;;;;;11.85;1.63;;;8.70;99.90;;;;;;5002081;28;20081;-35
2023/12/23 07:43:06;;;;;;;11.60;2.78;;;8.70;99.90;;;;;;5002530;28;20041;-36
2023/12/23 07:45:32;;;;;;;14.95;2.05;;;8.70;99.90;;;;;;5000787;28;20417;-34
2023/12/23 07:47:58;;;;;;;15.32;2.35;;;8.70;99.90;;;;;;4999929;28;20046;-35
2023/12/23 07:50:24;;;;;;;13.75;2.30;;;8.70;99.90;;;;;;5003458;28;20489;-35
2023/12/23 07:52:49;;;;;;;12.57;1.90;;;8.70;99.90;;;;;;5001733;28;20058;-34
2023/12/23 07:55:15;;;;;;;14.43;1.63;;;8.70;99.90;;;;;;4985073;28;20049;-35
2023/12/23 07:57:42;;;;;;;16.27;2.00;;;8.70;99.90;;;;;;5001441;28;20058;-36
2023/12/23 08:00:09;;;;;;;10.80;1.70;;;8.70;99.90;;;;;;5002494;28;20137;-34
2023/12/23 08:02:35;;;;;;;12.30;1.60;;;8.80;99.90;;;;;;5004782;28;20081;-36
2023/12/23 08:05:02;;;;;;;12.73;1.75;;;8.80;99.90;;;;;;4998563;28;20495;-37
2023/12/23 08:07:28;;;;;;;9.55;1.75;;;8.80;99.90;;;;;;5000371;28;20068;-35
2023/12/23 08:09:53;;;;;;;10.98;1.60;;;8.80;99.90;;;;;;5000590;28;20559;-35
2023/12/23 08:12:19;;;;;;;15.02;1.73;;;8.90;99.90;;;;;;5004127;28;20054;-37
2023/12/23 08:14:44;;;;;;;14.30;1.95;;;8.90;99.90;;;;;;5000296;28;20054;-35
2023/12/23 08:17:11;;;;;;;15.90;2.30;;;8.90;99.90;;;;;;5000529;28;20053;-36
2023/12/23 08:19:37;;;;;;;11.02;1.77;;;8.90;99.90;;;;;;4982237;28;20042;-35
2023/12/23 08:22:03;;;;;;;7.85;1.40;;;9.00;99.90;;;;;;4984178;28;20513;-35
2023/12/23 08:24:29;;;;;;;13.73;1.75;;;9.00;99.90;;;;;;4999346;28;20057;-35
2023/12/23 08:26:56;;;;;;;10.10;1.73;;;9.00;99.90;;;;;;5003599;28;20066;-35
2023/12/23 08:29:24;;;;;;;15.45;1.77;;;9.00;99.90;;;;;;5002808;28;20042;-35
2023/12/23 08:31:49;;;;;;;6.18;1.13;;;9.00;99.90;;;;;;5001233;28;20058;-35
2023/12/23 08:34:15;;;;;;;10.02;2.10;;;9.00;99.90;;;;;;4985077;28;20103;-35
2023/12/23 08:36:41;;;;;;;12.98;1.60;;;9.00;99.90;;;;;;5005131;28;20474;-36
2023/12/23 08:39:07;;;;;;;11.98;1.80;;;9.00;99.90;;;;;;5006478;28;20548;-36
2023/12/23 08:41:35;;;;;;;15.38;1.55;;;9.00;99.90;;;;;;4999904;28;20148;-35
2023/12/23 08:44:02;;;;;;;8.90;1.60;;;9.00;99.90;;;;;;4999928;28;20049;-35
2023/12/23 08:46:28;;;;;;;11.02;2.08;;;9.00;99.90;;;;;;5005578;28;20160;-35
2023/12/23 08:48:54;;;;;;;9.20;2.00;;;8.90;99.90;;;;;;4984846;28;20497;-35
2023/12/23 08:51:20;;;;;;;18.90;2.70;;;8.90;99.90;;;;;;5005751;28;20053;-35
2023/12/23 08:53:45;;;;;;;10.65;1.60;;;8.90;99.90;;;;;;4986354;28;20065;-35
2023/12/23 08:56:11;;;;;;;10.73;2.33;;;8.80;99.90;;;;;;5005006;28;20267;-35
2023/12/23 08:58:37;;;;;;;12.52;2.05;;;8.80;99.90;;;;;;5001283;28;20035;-35
2023/12/23 09:01:03;;;;;;;16.95;2.05;;;8.80;99.90;;;;;;5005940;28;20062;-35
2023/12/23 09:03:30;;;;;;;12.63;1.55;;;8.70;99.90;;;;;;5007094;28;20112;-35
2023/12/23 09:05:57;;;;;;;10.57;1.40;;;8.70;99.90;;;;;;5004657;28;20053;-35
2023/12/23 09:08:23;;;;;;;20.38;2.13;;;8.70;99.90;;;;;;5003866;28;20083;-35
2023/12/23 09:10:48;;;;;;;10.07;1.70;;;8.70;99.90;;;;;;5002252;28;20096;-35
2023/12/23 09:13:14;;;;;;;9.93;1.85;;;8.70;99.90;;;;;;5006631;28;20088;-35
2023/12/23 09:15:40;;;;;;;9.23;1.38;;;8.70;99.90;;;;;;5005668;28;20132;-36
2023/12/23 09:18:06;;;;;;;11.43;2.25;;;8.60;99.90;;;;;;5003781;28;20046;-36
2023/12/23 09:20:32;;;;;;;16.17;1.88;;;8.70;99.90;;;;;;5004120;28;20049;-36
2023/12/23 09:22:57;;;;;;;14.85;1.67;;;8.70;99.90;;;;;;5006217;28;20808;-35
2023/12/23 09:25:23;;;;;;;11.82;2.35;;;8.70;99.90;;;;;;4998564;28;20069;-35
2023/12/23 09:27:48;;;;;;;12.93;1.20;;;8.70;99.90;;;;;;5003116;28;20053;-35
2023/12/23 09:30:15;;;;;;;8.40;1.48;;;8.80;99.90;;;;;;5003579;28;20165;-35
2023/12/23 09:32:40;;;;;;;9.68;1.60;;;8.80;99.90;;;;;;5002777;28;20065;-35
2023/12/23 09:35:06;;;;;;;6.40;1.30;;;8.90;99.90;;;;;;5000245;28;20042;-35
2023/12/23 09:37:32;;;;;;;14.35;1.67;;;8.90;99.90;;;;;;5004005;28;20497;-35
2023/12/23 09:40:01;;;;;;;14.18;1.75;;;9.00;99.90;;;;;;4996890;28;20419;-35
2023/12/23 09:42:28;;;;;;;6.13;1.20;;;9.00;99.90;;;;;;4999977;28;20489;-35
2023/12/23 09:44:54;;;;;;;11.48;1.63;;;9.00;99.90;;;;;;5001145;28;20057;-35
2023/12/23 09:47:20;;;;;;;9.38;1.85;;;9.00;99.90;;;;;;5003836;28;20394;-35
2023/12/23 09:49:46;;;;;;;10.13;1.20;;;9.10;99.90;;;;;;4999513;28;20042;-35
2023/12/23 09:52:13;;;;;;;12.70;2.20;;;9.10;99.90;;;;;;5004890;28;20052;-35
2023/12/23 09:54:44;;;;;;;12.23;1.52;;;9.10;99.90;;;;;;5001992;28;20129;-34
2023/12/23 09:57:11;;;;;;;11.80;2.17;;;9.20;99.90;;;;;;5001985;28;20070;-34
2023/12/23 09:59:36;;;;;;;9.93;1.65;;;9.20;99.90;;;;;;4998570;28;20069;-35
2023/12/23 10:02:03;;;;;;;9.27;1.48;;;9.20;99.90;;;;;;4999347;28;20485;-35
2023/12/23 10:04:29;;;;;;;11.35;1.88;;;9.20;99.90;;;;;;5002031;28;20041;-35
2023/12/23 10:06:55;;;;;;;9.23;1.35;;;9.20;99.90;;;;;;5002158;28;20115;-34
2023/12/23 10:09:21;;;;;;;11.57;2.05;;;9.20;99.90;;;;;;4998811;28;20045;-35
2023/12/23 10:11:47;;;;;;;11.57;1.63;;;9.20;99.90;;;;;;4997798;28;20045;-35
2023/12/23 10:14:13;;;;;;;9.55;1.85;;;9.30;99.90;;;;;;4986535;28;20577;-35
2023/12/23 10:16:41;;;;;;;13.43;2.45;;;9.30;99.90;;;;;;4999100;28;20079;-35
2023/12/23 10:19:10;;;;;;;15.93;1.63;;;9.30;99.90;;;;;;4998519;28;20524;-34
2023/12/23 10:21:35;;;;;;;13.05;2.67;;;9.30;99.90;;;;;;4996255;28;20049;-34
2023/12/23 10:24:02;;;;;;;10.07;1.67;;;9.30;99.90;;;;;;4998903;28;20143;-36
2023/12/23 10:26:29;;;;;;;16.90;2.28;;;9.20;99.90;;;;;;4999451;28;20050;-34
2023/12/23 10:29:03;;;;;;;7.60;1.17;;;9.20;99.90;;;;;;5002659;28;20054;-36
2023/12/23 10:31:31;;;;;;;14.02;1.85;;;9.30;99.90;;;;;;5000181;28;20056;-36
2023/12/23 10:34:08;;;;;;;8.73;1.65;;;9.30;99.90;;;;;;4998454;28;20073;-35
2023/12/23 10:36:34;;;;;;;10.15;1.33;;;9.40;99.90;;;;;;5001719;28;20485;-35
2023/12/23 10:39:02;;;;;;;7.32;1.60;;;9.50;99.90;;;;;;4998322;28;20081;-35
2023/12/23 10:41:28;;;;;;;9.50;1.13;;;9.50;99.90;;;;;;4999400;28;20057;-35
2023/12/23 10:43:55;;;;;;;10.10;1.40;;;9.50;99.90;;;;;;4978446;28;20046;-36
2023/12/23 10:46:21;;;;;;;8.15;2.15;;;9.50;99.90;;;;;;4996459;28;20053;-35
2023/12/23 10:48:47;;;;;;;13.23;1.35;;;9.60;99.90;;;;;;5004275;28;20058;-35
2023/12/23 10:51:15;;;;;;;10.63;1.90;;;9.50;99.90;;;;;;4999753;28;20124;-36
2023/12/23 10:53:41;;;;;;;7.70;2.40;;;9.50;99.90;;;;;;4996743;28;20721;-35
2023/12/23 10:56:09;;;;;;;9.88;1.80;;;9.50;99.90;;;;;;4999800;28;20054;-35
2023/12/23 10:58:35;;;;;;;14.52;1.50;;;9.50;99.90;;;;;;5005685;28;20559;-35
2023/12/23 11:01:01;;;;;;;9.32;1.25;;;9.50;99.90;;;;;;4998085;28;20494;-35
2023/12/23 11:03:32;;;;;;;8.40;1.20;;;9.50;99.90;;;;;;5001659;28;20059;-35
2023/12/23 11:06:00;;;;;;;9.68;1.42;;;9.60;99.90;;;;;;4998938;28;20215;-36
2023/12/23 11:08:27;;;;;;;7.95;1.33;;;9.60;99.90;;;;;;4997746;28;20103;-35
2023/12/23 11:10:53;;;;;;;8.45;1.52;;;9.60;99.90;;;;;;4982734;28;20046;-36
2023/12/23 11:13:20;;;;;;;16.08;1.77;;;9.50;99.90;;;;;;5000347;28;20060;-35
2023/12/23 11:15:47;;;;;;;13.85;2.55;;;9.60;99.90;;;;;;5002015;28;20412;-35
2023/12/23 11:18:13;;;;;;;9.90;1.83;;;9.50;99.90;;;;;;5001220;28;20191;-36
2023/12/23 11:20:41;;;;;;;13.38;1.63;;;9.60;99.90;;;;;;4999901;28;20057;-36
2023/12/23 11:23:29;;;;;;;12.88;1.73;;;9.60;99.90;;;;;;4997799;28;23392;-35
2023/12/23 11:25:55;;;;;;;10.43;1.42;;;9.60;99.90;;;;;;4995319;28;20060;-35
2023/12/23 11:28:21;;;;;;;11.05;1.48;;;9.60;99.90;;;;;;5001633;28;20054;-35
2023/12/23 11:30:48;;;;;;;8.32;1.58;;;9.60;99.90;;;;;;4996984;28;20413;-35
2023/12/23 11:33:14;;;;;;;16.13;2.30;;;9.60;99.90;;;;;;5004796;28;20463;-35
2023/12/23 11:36:00;;;;;;;9.00;1.50;;;9.70;99.90;;;;;;4995574;28;20556;-35
2023/12/23 11:38:45;;;;;;;13.55;1.58;;;9.70;99.90;;;;;;4995802;28;20073;-35
2023/12/23 11:41:12;;;;;;;10.57;2.13;;;9.70;99.90;;;;;;4998776;28;20058;-35
2023/12/23 11:43:40;;;;;;;8.85;1.50;;;9.80;99.90;;;;;;4996473;28;21428;-35
2023/12/23 11:46:06;;;;;;;14.27;2.17;;;9.80;99.90;;;;;;4999924;28;20045;-35
2023/12/23 11:48:32;;;;;;;12.05;2.75;;;9.80;99.90;;;;;;4998637;28;20046;-36
2023/12/23 11:50:57;;;;;;;9.57;1.58;;;9.80;99.90;;;;;;4996191;28;20416;-36
2023/12/23 11:53:23;;;;;;;11.00;1.67;;;9.80;99.90;;;;;;4983707;28;20424;-35
2023/12/23 11:55:49;;;;;;;10.05;1.65;;;9.90;99.90;;;;;;5000149;28;20045;-35
2023/12/23 11:58:16;;;;;;;9.82;1.75;;;9.90;99.90;;;;;;4996248;28;20623;-35
2023/12/23 12:00:42;;;;;;;11.63;2.25;;;9.90;99.90;;;;;;5002598;28;20159;-35
2023/12/23 12:03:09;;;;;;;10.05;2.08;;;9.90;99.90;;;;;;5004261;28;20077;-35
2023/12/23 12:05:35;;;;;;;9.27;1.83;;;9.90;99.90;;;;;;5002934;28;20064;-35
2023/12/23 12:08:01;;;;;;;11.23;1.40;;;9.90;99.90;;;;;;5004809;28;20053;-36
2023/12/23 12:10:27;;;;;;;14.82;2.28;;;9.90;99.90;;;;;;5002159;28;20057;-35
2023/12/23 12:12:53;;;;;;;12.90;1.65;;;9.90;99.90;;;;;;5008610;28;20050;-35
2023/12/23 12:15:19;;;;;;;9.60;1.63;;;9.90;99.90;;;;;;5004853;28;20049;-35
2023/12/23 12:17:44;;;;;;;9.93;1.42;;;9.90;99.90;;;;;;5007786;28;20064;-35
2023/12/23 12:20:10;;;;;;;9.68;1.27;;;10.00;99.90;;;;;;5004925;28;20061;-34
2023/12/23 12:22:48;;;;;;;10.82;1.73;;;10.00;99.90;;;;;;5003356;28;20046;-35
2023/12/23 12:25:14;;;;;;;8.43;1.27;;;9.90;99.90;;;;;;5000689;28;20176;-34
2023/12/23 12:27:40;;;;;;;19.25;1.60;;;10.00;99.90;;;;;;5005603;28;20072;-36
2023/12/23 12:30:08;;;;;;;10.55;1.60;;;9.90;99.90;;;;;;5004897;28;20068;-35
2023/12/23 12:32:34;;;;;;;10.98;1.40;;;9.90;99.90;;;;;;5009487;28;20066;-36
2023/12/23 12:35:01;;;;;;;8.13;1.40;;;9.90;99.90;;;;;;5007941;28;20114;-36
2023/12/23 12:37:27;;;;;;;11.52;1.58;;;10.00;99.90;;;;;;5004233;28;20054;-35
2023/12/23 12:39:53;;;;;;;7.63;1.73;;;10.00;99.90;;;;;;5005344;28;20050;-36
2023/12/23 12:42:19;;;;;;;9.02;2.05;;;10.00;99.90;;;;;;5006581;28;20402;-36
2023/12/23 12:44:44;;;;;;;14.30;1.63;;;10.10;99.90;;;;;;5008694;28;20057;-36
2023/12/23 12:47:10;;;;;;;9.55;1.40;;;10.10;99.90;;;;;;5006217;28;20057;-36
2023/12/23 12:49:45;;;;;;;10.18;1.25;;;10.00;99.90;;;;;;5003448;28;20045;-34